createdAt,value
2019-02-19T00:00:31.722Z,6.98
2019-02-19T00:02:58.445Z,7.04
2019-02-19T00:05:25.216Z,7.11
2019-02-19T00:07:51.932Z,7.25
2019-02-19T00:10:22.127Z,7.25
2019-02-19T00:12:48.903Z,7.33
2019-02-19T00:15:15.660Z,7.48
2019-02-19T00:17:42.418Z,7.54
2019-02-19T00:20:09.257Z,7.76
2019-02-19T00:22:35.999Z,7.76
2019-02-19T00:25:02.815Z,7.90
2019-02-19T00:27:31.217Z,8.04
2019-02-19T00:29:58.327Z,8.15
2019-02-19T00:32:25.050Z,8.24
2019-02-19T00:34:51.774Z,8.25
2019-02-19T00:37:18.506Z,8.34
2019-02-19T00:39:47.685Z,8.47
2019-02-19T00:42:14.398Z,8.53
2019-02-19T00:44:41.447Z,8.54
2019-02-19T00:47:10.355Z,8.54
2019-02-19T00:49:37.172Z,8.52
2019-02-19T00:52:03.933Z,8.50
2019-02-19T00:54:32.571Z,8.49
2019-02-19T00:56:59.932Z,8.54
2019-02-19T00:59:26.687Z,8.55
2019-02-19T01:01:53.469Z,8.61
2019-02-19T01:04:23.334Z,8.60
2019-02-19T01:06:50.098Z,8.65
2019-02-19T01:09:16.838Z,8.71
2019-02-19T01:11:43.599Z,8.76
2019-02-19T01:14:10.358Z,8.79
2019-02-19T01:16:37.412Z,8.85
2019-02-19T01:19:04.683Z,8.82
2019-02-19T01:21:31.414Z,8.71
2019-02-19T01:23:58.137Z,8.63
2019-02-19T01:26:24.844Z,8.66
2019-02-19T01:28:51.580Z,8.75
2019-02-19T01:31:18.388Z,8.75
2019-02-19T01:33:45.466Z,8.76
2019-02-19T01:36:12.192Z,8.82
2019-02-19T01:38:38.938Z,8.79
2019-02-19T01:41:11.263Z,8.75
2019-02-19T01:43:37.995Z,8.81
2019-02-19T01:46:04.732Z,8.78
2019-02-19T01:48:31.458Z,8.77
2019-02-19T01:50:58.215Z,8.75
2019-02-19T01:53:24.961Z,8.68
2019-02-19T01:55:51.681Z,8.68
2019-02-19T01:58:18.402Z,8.66
2019-02-19T02:00:45.136Z,8.66
2019-02-19T02:03:14.753Z,8.68
2019-02-19T02:05:41.490Z,8.70
2019-02-19T02:08:08.261Z,8.72
2019-02-19T02:10:36.886Z,8.77
2019-02-19T02:13:03.615Z,8.84
2019-02-19T02:15:30.354Z,8.96
2019-02-19T02:17:57.420Z,8.95
2019-02-19T02:20:24.140Z,8.97
2019-02-19T02:22:50.895Z,8.99
2019-02-19T02:25:17.617Z,8.99
2019-02-19T02:27:44.361Z,9.01
2019-02-19T02:30:11.102Z,9.00
2019-02-19T02:32:37.965Z,9.05
2019-02-19T02:35:04.749Z,9.07
2019-02-19T02:37:31.481Z,9.00
2019-02-19T02:39:58.283Z,8.93
2019-02-19T02:42:25.010Z,8.92
2019-02-19T02:44:51.760Z,8.82
2019-02-19T02:47:18.490Z,8.81
2019-02-19T02:49:45.216Z,8.86
2019-02-19T02:52:12.078Z,8.86
2019-02-19T02:54:38.824Z,8.85
2019-02-19T02:57:05.552Z,8.84
2019-02-19T02:59:32.299Z,8.77
2019-02-19T03:02:01.076Z,8.72
2019-02-19T03:04:28.161Z,8.77
2019-02-19T03:07:08.031Z,8.65
2019-02-19T03:09:34.747Z,8.70
2019-02-19T03:12:03.418Z,8.74
2019-02-19T03:14:30.301Z,8.74
2019-02-19T03:16:58.724Z,8.75
2019-02-19T03:19:25.869Z,8.77
2019-02-19T03:21:53.243Z,8.80
2019-02-19T03:24:20.009Z,8.79
2019-02-19T03:26:46.774Z,8.79
2019-02-19T03:29:13.900Z,8.78
2019-02-19T03:31:42.943Z,8.79
2019-02-19T03:34:09.689Z,8.76
2019-02-19T03:36:36.438Z,8.77
2019-02-19T03:39:04.194Z,8.81
2019-02-19T03:41:31.387Z,8.81
2019-02-19T03:43:58.171Z,8.79
2019-02-19T03:46:25.272Z,8.73
2019-02-19T03:48:52.063Z,8.75
2019-02-19T03:51:18.832Z,8.84
2019-02-19T03:53:45.566Z,8.75
2019-02-19T03:56:12.297Z,8.71
2019-02-19T03:58:39.035Z,8.68
2019-02-19T04:01:05.792Z,8.69
2019-02-19T04:03:32.526Z,8.68
2019-02-19T04:05:59.253Z,8.66
2019-02-19T04:08:26.014Z,8.70
2019-02-19T04:10:52.730Z,8.77
2019-02-19T04:13:19.484Z,8.75
2019-02-19T04:15:46.227Z,8.79
2019-02-19T04:18:12.963Z,8.73
2019-02-19T04:20:39.694Z,8.71
2019-02-19T04:23:06.435Z,8.73
2019-02-19T04:25:33.138Z,8.75
2019-02-19T04:27:59.866Z,8.70
2019-02-19T04:30:26.599Z,8.70
2019-02-19T04:32:53.347Z,8.67
2019-02-19T04:35:20.075Z,8.57
2019-02-19T04:37:46.801Z,8.56
2019-02-19T04:40:13.879Z,8.57
2019-02-19T04:42:40.614Z,8.61
2019-02-19T04:45:07.535Z,8.64
2019-02-19T04:47:34.277Z,8.61
2019-02-19T04:50:01.631Z,8.61
2019-02-19T04:52:28.779Z,8.49
2019-02-19T04:54:57.537Z,8.49
2019-02-19T04:57:27.198Z,8.48
2019-02-19T04:59:54.055Z,8.55
2019-02-19T05:02:20.870Z,8.59
2019-02-19T05:04:47.625Z,8.58
2019-02-19T05:07:14.377Z,8.62
2019-02-19T05:09:41.800Z,8.63
2019-02-19T05:12:08.511Z,8.61
2019-02-19T05:14:35.241Z,8.59
2019-02-19T05:17:01.963Z,8.61
2019-02-19T05:19:31.015Z,8.61
2019-02-19T05:21:57.748Z,8.69
2019-02-19T05:24:26.663Z,8.68
2019-02-19T05:26:53.401Z,8.64
2019-02-19T05:29:20.245Z,8.57
2019-02-19T05:31:46.969Z,8.48
2019-02-19T05:34:13.714Z,8.51
2019-02-19T05:36:40.449Z,8.56
2019-02-19T05:39:07.232Z,8.62
2019-02-19T05:41:33.947Z,8.54
2019-02-19T05:44:00.686Z,8.51
2019-02-19T05:46:27.562Z,8.55
2019-02-19T05:48:54.297Z,8.57
2019-02-19T05:51:22.559Z,8.54
2019-02-19T05:53:49.435Z,8.51
2019-02-19T05:56:18.561Z,8.52
2019-02-19T05:58:48.739Z,8.54
2019-02-19T06:01:15.423Z,8.54
2019-02-19T06:03:42.158Z,8.51
2019-02-19T06:06:10.775Z,8.47
2019-02-19T06:08:37.502Z,8.42
2019-02-19T06:11:04.253Z,8.47
2019-02-19T06:13:31.330Z,8.44
2019-02-19T06:15:58.073Z,8.39
2019-02-19T06:18:24.779Z,8.43
2019-02-19T06:20:51.510Z,8.44
2019-02-19T06:23:18.236Z,8.40
2019-02-19T06:25:46.872Z,8.40
2019-02-19T06:28:13.605Z,8.47
2019-02-19T06:30:40.334Z,8.47
2019-02-19T06:33:07.371Z,8.46
2019-02-19T06:35:34.119Z,8.39
2019-02-19T06:38:00.867Z,8.35
2019-02-19T06:40:28.014Z,8.33
2019-02-19T06:42:54.771Z,8.45
2019-02-19T06:45:21.496Z,8.38
2019-02-19T06:47:48.335Z,8.39
2019-02-19T06:50:15.164Z,8.44
2019-02-19T06:52:41.908Z,8.47
2019-02-19T06:55:11.933Z,8.49
2019-02-19T06:57:38.625Z,8.46
2019-02-19T07:00:05.790Z,8.50
2019-02-19T07:02:58.222Z,8.50
2019-02-19T07:05:26.373Z,8.56
2019-02-19T07:07:53.097Z,8.58
2019-02-19T07:10:19.862Z,8.63
2019-02-19T07:12:46.573Z,8.58
2019-02-19T07:15:13.315Z,8.48
2019-02-19T07:17:40.043Z,8.50
2019-02-19T07:20:06.936Z,8.53
2019-02-19T07:22:33.649Z,8.58
2019-02-19T07:25:00.381Z,8.61
2019-02-19T07:27:27.139Z,8.60
2019-02-19T07:29:56.781Z,8.72
2019-02-19T07:32:22.986Z,8.70
2019-02-19T07:34:49.731Z,8.77
2019-02-19T07:37:16.473Z,8.77
2019-02-19T07:39:43.200Z,8.70
2019-02-19T07:42:09.941Z,8.72
2019-02-19T07:44:36.655Z,8.75
2019-02-19T07:47:03.375Z,8.75
2019-02-19T07:49:30.232Z,8.78
2019-02-19T07:51:57.386Z,8.76
2019-02-19T07:54:24.107Z,8.74
2019-02-19T07:56:50.857Z,8.77
2019-02-19T07:59:17.605Z,8.74
2019-02-19T08:01:47.177Z,8.75
2019-02-19T08:04:13.914Z,8.73
2019-02-19T08:06:42.231Z,8.75
2019-02-19T08:09:14.358Z,8.78
2019-02-19T08:11:41.125Z,8.82
2019-02-19T08:14:07.845Z,8.86
2019-02-19T08:16:34.605Z,8.91
2019-02-19T08:19:01.311Z,8.96
2019-02-19T08:21:28.087Z,8.77
2019-02-19T08:23:54.951Z,8.74
2019-02-19T08:26:22.056Z,8.85
2019-02-19T08:28:49.145Z,8.92
2019-02-19T08:31:17.775Z,8.94
2019-02-19T08:33:44.899Z,8.81
2019-02-19T08:36:12.751Z,8.69
2019-02-19T08:38:39.531Z,8.77
2019-02-19T08:41:06.277Z,8.90
2019-02-19T08:43:33.050Z,8.84
2019-02-19T08:46:01.026Z,8.94
2019-02-19T08:48:27.756Z,8.81
2019-02-19T08:50:56.136Z,8.72
2019-02-19T08:53:23.597Z,8.80
2019-02-19T08:55:53.144Z,8.90
2019-02-19T08:58:19.890Z,8.97
2019-02-19T09:00:47.607Z,9.03
2019-02-19T09:03:14.340Z,8.84
2019-02-19T09:05:41.089Z,8.63
2019-02-19T09:08:07.803Z,8.59
2019-02-19T09:10:34.743Z,8.60
2019-02-19T09:13:01.560Z,8.67
2019-02-19T09:15:28.680Z,8.79
2019-02-19T09:17:55.453Z,8.79
2019-02-19T09:20:22.159Z,8.83
2019-02-19T09:22:49.027Z,8.85
2019-02-19T09:25:16.078Z,8.94
2019-02-19T09:27:45.402Z,9.00
2019-02-19T09:30:12.133Z,9.00
2019-02-19T09:32:38.851Z,8.96
2019-02-19T09:35:05.789Z,9.07
2019-02-19T09:37:32.984Z,9.10
2019-02-19T09:39:59.737Z,9.16
2019-02-19T09:42:26.486Z,9.04
2019-02-19T09:44:56.009Z,9.02
2019-02-19T09:47:22.758Z,9.20
2019-02-19T09:49:49.585Z,9.22
2019-02-19T09:52:17.667Z,9.30
2019-02-19T09:54:44.521Z,9.36
2019-02-19T09:57:11.350Z,9.36
2019-02-19T09:59:39.551Z,9.27
2019-02-19T10:02:06.347Z,9.15
2019-02-19T10:04:33.183Z,9.18
2019-02-19T10:07:02.911Z,9.09
2019-02-19T10:09:29.710Z,9.03
2019-02-19T10:11:56.436Z,9.14
2019-02-19T10:14:23.214Z,9.09
2019-02-19T10:16:49.957Z,9.11
2019-02-19T10:19:16.699Z,9.26
2019-02-19T10:21:43.408Z,9.34
2019-02-19T10:24:22.160Z,9.39
2019-02-19T10:26:49.745Z,9.43
2019-02-19T10:29:16.681Z,9.31
2019-02-19T10:31:43.418Z,9.33
2019-02-19T10:34:10.159Z,9.37
2019-02-19T10:36:38.768Z,9.49
2019-02-19T10:39:07.440Z,9.61
2019-02-19T10:41:34.193Z,9.64
2019-02-19T10:44:01.020Z,9.74
2019-02-19T10:46:27.752Z,9.78
2019-02-19T10:48:54.800Z,9.88
2019-02-19T10:51:21.544Z,9.89
2019-02-19T10:53:48.396Z,9.87
2019-02-19T10:56:15.301Z,9.88
2019-02-19T10:58:42.044Z,9.82
2019-02-19T11:01:09.030Z,9.80
2019-02-19T11:03:35.804Z,9.80
2019-02-19T11:06:02.960Z,9.83
2019-02-19T11:08:29.764Z,9.91
2019-02-19T11:10:56.889Z,9.84
2019-02-19T11:13:23.609Z,9.91
2019-02-19T11:15:52.812Z,9.93
2019-02-19T11:18:28.083Z,9.84
2019-02-19T11:20:50.096Z,9.78
2019-02-19T11:23:17.224Z,9.86
2019-02-19T11:25:44.012Z,9.92
2019-02-19T11:28:12.930Z,9.97
2019-02-19T11:30:42.461Z,9.98
2019-02-19T11:33:09.224Z,10.14
2019-02-19T11:35:35.906Z,10.23
2019-02-19T11:38:02.722Z,10.41
2019-02-19T11:40:29.467Z,10.39
2019-02-19T11:42:56.183Z,10.48
2019-02-19T11:45:22.923Z,10.67
2019-02-19T11:47:49.642Z,10.78
2019-02-19T11:50:16.996Z,10.76
2019-02-19T11:52:44.016Z,10.75
2019-02-19T11:55:14.002Z,10.88
2019-02-19T11:57:42.329Z,10.93
2019-02-19T12:00:12.942Z,10.99
2019-02-19T12:02:39.684Z,11.03
2019-02-19T12:05:07.002Z,11.07
2019-02-19T12:07:33.931Z,11.09
2019-02-19T12:10:04.256Z,11.17
2019-02-19T12:12:31.202Z,11.26
2019-02-19T12:14:58.264Z,11.44
2019-02-19T12:17:27.696Z,11.59
2019-02-19T12:19:54.563Z,11.83
2019-02-19T12:22:21.281Z,11.87
2019-02-19T12:24:48.656Z,11.92
2019-02-19T12:27:15.665Z,12.03
2019-02-19T12:29:42.420Z,12.03
2019-02-19T12:32:11.007Z,11.90
2019-02-19T12:34:39.613Z,11.94
2019-02-19T12:37:07.522Z,11.93
2019-02-19T12:39:34.364Z,12.21
2019-02-19T12:42:01.062Z,12.38
2019-02-19T12:44:27.781Z,12.36
2019-02-19T12:46:54.476Z,12.33
2019-02-19T12:49:22.721Z,12.33
2019-02-19T12:51:49.463Z,12.04
2019-02-19T12:54:16.194Z,12.09
2019-02-19T12:56:43.061Z,12.22
2019-02-19T12:59:10.176Z,12.16
2019-02-19T13:01:36.898Z,12.07
2019-02-19T13:04:03.596Z,12.03
2019-02-19T13:06:32.236Z,12.04
2019-02-19T13:08:58.922Z,12.04
2019-02-19T13:11:25.672Z,12.00
2019-02-19T13:13:52.581Z,11.84
2019-02-19T13:16:19.295Z,11.84
2019-02-19T13:18:46.533Z,11.88
2019-02-19T13:21:16.862Z,11.86
2019-02-19T13:23:46.083Z,11.87
2019-02-19T13:26:12.822Z,11.97
2019-02-19T13:28:39.561Z,12.04
2019-02-19T13:31:06.267Z,11.85
2019-02-19T13:33:32.990Z,11.91
2019-02-19T13:35:59.863Z,11.96
2019-02-19T13:38:26.614Z,12.10
2019-02-19T13:40:53.517Z,12.14
2019-02-19T13:43:22.140Z,12.09
2019-02-19T13:45:49.175Z,12.02
2019-02-19T13:48:15.976Z,12.02
2019-02-19T13:50:43.050Z,11.92
2019-02-19T13:53:20.435Z,11.81
2019-02-19T13:55:49.985Z,11.68
2019-02-19T13:58:16.760Z,11.62
2019-02-19T14:00:44.934Z,11.78
2019-02-19T14:03:11.665Z,12.25
2019-02-19T14:05:38.406Z,12.26
2019-02-19T14:08:14.326Z,12.46
2019-02-19T14:10:36.608Z,12.69
2019-02-19T14:13:03.641Z,12.77
2019-02-19T14:15:47.094Z,12.83
2019-02-19T14:18:16.557Z,12.71
2019-02-19T14:21:01.485Z,13.04
2019-02-19T14:23:53.771Z,13.21
2019-02-19T14:26:38.437Z,13.21
2019-02-19T14:29:23.132Z,13.39
2019-02-19T14:32:06.954Z,13.43
2019-02-19T14:34:54.623Z,13.67
2019-02-19T14:37:52.956Z,13.62
2019-02-19T14:40:45.537Z,13.72
2019-02-19T14:43:38.436Z,13.50
2019-02-19T14:46:20.013Z,13.03
2019-02-19T14:48:56.522Z,12.99
2019-02-19T14:51:46.638Z,12.72
2019-02-19T14:54:26.131Z,12.65
2019-02-19T14:57:12.511Z,12.56
2019-02-19T15:00:05.698Z,12.36
2019-02-19T15:02:45.527Z,12.29
2019-02-19T15:05:34.889Z,12.30
2019-02-19T15:08:19.853Z,12.17
2019-02-19T15:10:57.872Z,12.12
2019-02-19T15:13:37.712Z,12.12
2019-02-19T15:16:11.201Z,12.05
2019-02-19T15:19:07.052Z,11.90
2019-02-19T15:21:51.731Z,11.89
2019-02-19T15:24:31.907Z,11.76
2019-02-19T15:27:04.837Z,11.83
2019-02-19T15:29:46.395Z,11.85
2019-02-19T15:32:48.089Z,11.82
2019-02-19T15:35:26.514Z,11.77
2019-02-19T15:38:14.621Z,11.65
2019-02-19T15:40:55.214Z,11.65
2019-02-19T15:43:46.512Z,11.61
2019-02-19T15:46:32.954Z,11.55
2019-02-19T15:49:19.305Z,11.58
2019-02-19T15:52:05.632Z,11.59
2019-02-19T15:55:00.881Z,11.57
2019-02-19T15:57:53.110Z,11.53
2019-02-19T16:00:42.539Z,11.54
2019-02-19T16:03:22.374Z,11.59
2019-02-19T16:05:53.923Z,11.55
2019-02-19T16:08:41.680Z,11.48
2019-02-19T16:11:19.717Z,11.44
2019-02-19T16:14:21.139Z,11.23
2019-02-19T16:17:02.403Z,11.18
2019-02-19T16:19:36.943Z,11.20
2019-02-19T16:22:14.224Z,11.26
2019-02-19T16:25:00.657Z,11.25
2019-02-19T16:27:52.962Z,11.12
2019-02-19T16:30:41.824Z,11.10
2019-02-19T16:33:19.115Z,11.11
2019-02-19T16:36:08.787Z,11.09
2019-02-19T16:38:50.833Z,11.08
2019-02-19T16:41:43.119Z,10.94
2019-02-19T16:44:25.109Z,10.82
2019-02-19T16:47:10.693Z,10.72
2019-02-19T16:49:54.144Z,10.76
2019-02-19T16:52:29.359Z,10.76
2019-02-19T16:55:11.888Z,10.76
2019-02-19T16:57:53.679Z,10.68
2019-02-19T17:00:27.916Z,10.67
2019-02-19T17:03:03.981Z,10.54
2019-02-19T17:05:45.853Z,10.52
2019-02-19T17:08:34.962Z,10.54
2019-02-19T17:11:22.344Z,10.49
2019-02-19T17:14:32.957Z,10.46
2019-02-19T17:17:06.714Z,10.50
2019-02-19T17:19:51.628Z,10.49
2019-02-19T17:22:38.133Z,10.54
2019-02-19T17:25:36.677Z,10.46
2019-02-19T17:28:12.705Z,10.45
2019-02-19T17:31:08.854Z,5.95
2019-02-19T17:33:55.572Z,10.42
2019-02-19T17:36:38.001Z,10.36
2019-02-19T17:39:24.896Z,10.32
2019-02-19T17:42:04.616Z,10.28
2019-02-19T17:44:44.242Z,10.22
2019-02-19T17:47:28.435Z,10.20
2019-02-19T17:50:11.380Z,10.18
2019-02-19T17:52:57.781Z,10.24
2019-02-19T17:56:02.482Z,10.31
2019-02-19T17:58:48.858Z,10.34
2019-02-19T18:01:25.428Z,10.24
2019-02-19T18:04:14.898Z,10.05
2019-02-19T18:06:51.880Z,9.93
2019-02-19T18:09:28.995Z,9.87
2019-02-19T18:12:30.343Z,9.90
2019-02-19T18:15:08.835Z,9.89
2019-02-19T18:17:55.208Z,9.87
2019-02-19T18:20:22.021Z,9.73
2019-02-19T18:22:48.671Z,9.69
2019-02-19T18:25:18.199Z,9.64
2019-02-19T18:27:44.970Z,9.61
2019-02-19T18:30:11.868Z,9.60
2019-02-19T18:32:38.951Z,9.61
2019-02-19T18:35:05.827Z,9.65
2019-02-19T18:37:32.834Z,9.74
2019-02-19T18:39:59.575Z,9.72
2019-02-19T18:42:26.300Z,9.74
2019-02-19T18:44:56.922Z,9.62
2019-02-19T18:47:23.857Z,9.55
2019-02-19T18:49:50.759Z,9.38
2019-02-19T18:52:17.493Z,9.36
2019-02-19T18:54:44.340Z,9.28
2019-02-19T18:57:11.078Z,9.24
2019-02-19T18:59:39.007Z,9.14
2019-02-19T19:02:06.004Z,8.88
2019-02-19T19:04:32.765Z,8.59
2019-02-19T19:06:59.716Z,8.54
2019-02-19T19:09:26.534Z,8.45
2019-02-19T19:11:53.452Z,8.30
2019-02-19T19:14:20.793Z,8.27
2019-02-19T19:16:47.525Z,8.12
2019-02-19T19:19:14.264Z,8.18
2019-02-19T19:21:41.016Z,8.11
2019-02-19T19:24:07.871Z,7.95
2019-02-19T19:26:35.023Z,7.89
2019-02-19T19:29:01.799Z,8.01
2019-02-19T19:31:33.615Z,7.97
2019-02-19T19:33:57.566Z,7.95
2019-02-19T19:36:29.707Z,7.91
2019-02-19T19:38:59.343Z,7.93
2019-02-19T19:41:26.396Z,7.98
2019-02-19T19:43:53.307Z,8.03
2019-02-19T19:46:20.123Z,8.09
2019-02-19T19:48:46.971Z,8.06
2019-02-19T19:51:17.310Z,8.05
2019-02-19T19:53:42.757Z,8.05
2019-02-19T19:56:09.520Z,8.00
2019-02-19T19:58:36.437Z,7.98
2019-02-19T20:01:03.233Z,7.92
2019-02-19T20:03:30.048Z,7.91
2019-02-19T20:05:56.880Z,7.77
2019-02-19T20:08:26.963Z,7.72
2019-02-19T20:10:53.829Z,7.63
2019-02-19T20:13:21.201Z,7.64
2019-02-19T20:15:48.191Z,7.55
2019-02-19T20:18:15.378Z,7.44
2019-02-19T20:20:42.942Z,7.39
2019-02-19T20:23:09.795Z,7.37
2019-02-19T20:25:36.541Z,7.32
2019-02-19T20:28:03.405Z,7.37
2019-02-19T20:30:30.251Z,7.37
2019-02-19T20:33:00.251Z,7.30
2019-02-19T20:35:27.355Z,7.20
2019-02-19T20:37:54.345Z,7.15
2019-02-19T20:40:21.579Z,7.04
2019-02-19T20:42:51.140Z,6.97
2019-02-19T20:45:18.350Z,6.93
2019-02-19T20:47:45.363Z,6.88
2019-02-19T20:50:12.094Z,6.83
2019-02-19T20:52:38.873Z,6.82
2019-02-19T20:55:06.332Z,6.60
2019-02-19T20:57:33.074Z,6.60
2019-02-19T20:59:59.907Z,6.50
2019-02-19T21:02:28.923Z,6.37
2019-02-19T21:04:55.758Z,6.42
2019-02-19T21:07:22.805Z,6.36
2019-02-19T21:09:49.718Z,6.31
2019-02-19T21:12:16.683Z,6.30
2019-02-19T21:14:43.474Z,6.30
2019-02-19T21:17:10.268Z,6.26
2019-02-19T21:19:37.135Z,6.20
2019-02-19T21:22:03.953Z,6.16
2019-02-19T21:24:30.697Z,6.15
2019-02-19T21:26:57.455Z,6.15
2019-02-19T21:29:24.179Z,6.02
2019-02-19T21:31:51.314Z,6.09
2019-02-19T21:34:19.129Z,6.19
2019-02-19T21:36:45.896Z,6.03
2019-02-19T21:39:13.006Z,6.02
2019-02-19T21:41:40.363Z,5.99
2019-02-19T21:44:07.433Z,6.03
2019-02-19T21:46:34.252Z,6.03
2019-02-19T21:49:01.171Z,5.87
2019-02-19T21:51:29.930Z,5.87
2019-02-19T21:53:58.115Z,5.82
2019-02-19T21:56:24.857Z,5.77
2019-02-19T21:58:51.904Z,5.73
2019-02-19T22:01:18.838Z,5.73
2019-02-19T22:03:45.582Z,5.69
2019-02-19T22:06:12.282Z,5.72
2019-02-19T22:08:39.012Z,5.74
2019-02-19T22:11:05.966Z,5.62
2019-02-19T22:13:33.151Z,5.74
2019-02-19T22:15:59.855Z,5.74
2019-02-19T22:18:29.422Z,5.73
2019-02-19T22:21:01.273Z,5.43
2019-02-19T22:23:28.148Z,5.43
2019-02-19T22:25:55.068Z,5.45
2019-02-19T22:28:22.926Z,5.45
2019-02-19T22:30:50.057Z,5.46
2019-02-19T22:33:16.781Z,5.44
2019-02-19T22:35:43.509Z,5.44
2019-02-19T22:38:11.109Z,5.35
2019-02-19T22:40:40.639Z,5.42
2019-02-19T22:43:07.766Z,5.33
2019-02-19T22:45:34.527Z,5.33
2019-02-19T22:48:01.766Z,5.24
2019-02-19T22:50:28.560Z,5.22
2019-02-19T22:52:55.269Z,5.23
2019-02-19T22:55:32.939Z,5.28
2019-02-19T22:57:59.955Z,5.17
2019-02-19T23:00:45.817Z,5.04
2019-02-19T23:03:16.704Z,5.06
2019-02-19T23:05:43.436Z,5.06
2019-02-19T23:08:10.488Z,4.92
2019-02-19T23:10:37.219Z,4.95
2019-02-19T23:13:03.979Z,4.92
2019-02-19T23:15:30.721Z,4.89
2019-02-19T23:17:57.671Z,4.89
2019-02-19T23:20:24.407Z,4.91
2019-02-19T23:22:51.811Z,5.03
2019-02-19T23:25:18.671Z,5.03
2019-02-19T23:27:45.641Z,4.66
2019-02-19T23:30:12.417Z,4.66
2019-02-19T23:32:39.535Z,4.81
2019-02-19T23:35:13.254Z,4.82
2019-02-19T23:37:39.993Z,4.79
2019-02-19T23:40:06.698Z,4.79
2019-02-19T23:42:33.751Z,4.72
2019-02-19T23:45:00.472Z,4.67
2019-02-19T23:47:27.200Z,4.58
2019-02-19T23:49:53.930Z,4.58
2019-02-19T23:52:20.710Z,4.67
2019-02-19T23:54:47.446Z,4.70
2019-02-19T23:57:14.203Z,4.70
2019-02-19T23:59:40.911Z,4.81
